sensor_id;sensor_type;location;lat;lon;timestamp;pressure;altitude;pressure_sealevel;temperature;humidity
49194;BME280;35029;50.804;12.866;2023-07-24T00:00:43;96968.25;;;20.40;69.52
49194;BME280;35029;50.804;12.866;2023-07-24T00:03:09;96969.88;;;20.36;69.21
49194;BME280;35029;50.804;12.866;2023-07-24T00:05:35;96940.13;;;20.12;67.93
49194;BME280;35029;50.804;12.866;2023-07-24T00:08:00;96960.22;;;20.24;68.00
49194;BME280;35029;50.804;12.866;2023-07-24T00:10:26;96940.63;;;20.19;68.67
49194;BME280;35029;50.804;12.866;2023-07-24T00:12:51;96942.22;;;20.25;69.06
49194;BME280;35029;50.804;12.866;2023-07-24T00:15:17;96959.44;;;20.19;68.22
49194;BME280;35029;50.804;12.866;2023-07-24T00:17:43;96971.34;;;20.13;68.18
49194;BME280;35029;50.804;12.866;2023-07-24T00:20:08;96954.72;;;20.00;69.08
49194;BME280;35029;50.804;12.866;2023-07-24T00:22:34;96963.88;;;19.94;69.71
49194;BME280;35029;50.804;12.866;2023-07-24T00:24:59;96963.06;;;19.93;68.70
49194;BME280;35029;50.804;12.866;2023-07-24T00:27:25;96943.19;;;19.79;67.97
49194;BME280;35029;50.804;12.866;2023-07-24T00:29:50;96943.47;;;19.88;67.53
49194;BME280;35029;50.804;12.866;2023-07-24T00:32:16;96953.91;;;19.95;66.75
49194;BME280;35029;50.804;12.866;2023-07-24T00:34:41;96957.41;;;20.00;66.55
49194;BME280;35029;50.804;12.866;2023-07-24T00:37:07;96941.28;;;19.95;65.77
49194;BME280;35029;50.804;12.866;2023-07-24T00:39:32;96930.03;;;19.88;64.85
49194;BME280;35029;50.804;12.866;2023-07-24T00:41:58;96946.09;;;19.98;64.59
49194;BME280;35029;50.804;12.866;2023-07-24T00:44:24;96948.53;;;19.95;64.15
49194;BME280;35029;50.804;12.866;2023-07-24T00:46:49;96954.16;;;19.98;63.81
49194;BME280;35029;50.804;12.866;2023-07-24T00:49:16;96947.44;;;19.96;63.72
49194;BME280;35029;50.804;12.866;2023-07-24T00:51:42;96913.38;;;19.70;64.38
49194;BME280;35029;50.804;12.866;2023-07-24T00:54:11;96936.50;;;19.82;65.21
49194;BME280;35029;50.804;12.866;2023-07-24T00:56:37;96915.53;;;19.63;65.43
49194;BME280;35029;50.804;12.866;2023-07-24T00:59:02;96927.09;;;19.69;66.15
49194;BME280;35029;50.804;12.866;2023-07-24T01:01:28;96930.03;;;19.67;66.06
49194;BME280;35029;50.804;12.866;2023-07-24T01:03:55;96937.88;;;19.64;66.09
49194;BME280;35029;50.804;12.866;2023-07-24T01:06:22;96931.66;;;19.63;66.28
49194;BME280;35029;50.804;12.866;2023-07-24T01:08:47;96928.75;;;19.59;65.85
49194;BME280;35029;50.804;12.866;2023-07-24T01:11:19;96931.44;;;19.59;64.20
49194;BME280;35029;50.804;12.866;2023-07-24T01:14:00;96933.03;;;19.61;64.13
49194;BME280;35029;50.804;12.866;2023-07-24T01:16:37;96925.22;;;19.59;64.22
49194;BME280;35029;50.804;12.866;2023-07-24T01:19:11;96880.72;;;19.32;63.92
49194;BME280;35029;50.804;12.866;2023-07-24T01:21:45;96914.50;;;19.54;63.10
49194;BME280;35029;50.804;12.866;2023-07-24T01:24:17;96915.03;;;19.61;62.98
49194;BME280;35029;50.804;12.866;2023-07-24T01:26:45;96913.97;;;19.57;63.03
49194;BME280;35029;50.804;12.866;2023-07-24T01:29:11;96925.22;;;19.59;62.63
49194;BME280;35029;50.804;12.866;2023-07-24T01:31:36;96923.34;;;19.65;62.51
49194;BME280;35029;50.804;12.866;2023-07-24T01:34:02;96926.56;;;19.62;62.42
49194;BME280;35029;50.804;12.866;2023-07-24T01:36:28;96928.47;;;19.56;61.24
49194;BME280;35029;50.804;12.866;2023-07-24T01:38:53;96933.84;;;19.61;61.54
49194;BME280;35029;50.804;12.866;2023-07-24T01:41:19;96927.13;;;19.58;61.74
49194;BME280;35029;50.804;12.866;2023-07-24T01:43:45;96916.16;;;19.45;61.85
49194;BME280;35029;50.804;12.866;2023-07-24T01:46:11;96936.03;;;19.54;62.34
49194;BME280;35029;50.804;12.866;2023-07-24T01:48:36;96926.63;;;19.51;61.92
49194;BME280;35029;50.804;12.866;2023-07-24T01:51:02;96929.03;;;19.53;61.67
49194;BME280;35029;50.804;12.866;2023-07-24T01:53:28;96914.81;;;19.47;60.92
49194;BME280;35029;50.804;12.866;2023-07-24T01:55:54;96933.00;;;19.66;60.83
49194;BME280;35029;50.804;12.866;2023-07-24T01:58:19;96915.31;;;19.59;61.03
49194;BME280;35029;50.804;12.866;2023-07-24T02:00:45;96917.97;;;19.65;61.08
49194;BME280;35029;50.804;12.866;2023-07-24T02:03:10;96894.88;;;19.48;61.21
49194;BME280;35029;50.804;12.866;2023-07-24T02:05:36;96912.06;;;19.57;61.36
49194;BME280;35029;50.804;12.866;2023-07-24T02:08:02;96881.50;;;19.43;61.03
49194;BME280;35029;50.804;12.866;2023-07-24T02:10:27;96911.53;;;19.61;60.16
49194;BME280;35029;50.804;12.866;2023-07-24T02:12:53;96907.75;;;19.67;60.16
49194;BME280;35029;50.804;12.866;2023-07-24T02:15:18;96919.56;;;19.71;59.39
49194;BME280;35029;50.804;12.866;2023-07-24T02:17:44;96908.50;;;19.77;59.08
49194;BME280;35029;50.804;12.866;2023-07-24T02:20:10;96903.41;;;19.76;58.74
49194;BME280;35029;50.804;12.866;2023-07-24T02:22:35;96903.16;;;19.83;58.86
49194;BME280;35029;50.804;12.866;2023-07-24T02:25:06;96860.47;;;19.61;58.91
49194;BME280;35029;50.804;12.866;2023-07-24T02:27:32;96882.91;;;19.90;57.71
49194;BME280;35029;50.804;12.866;2023-07-24T02:30:00;96892.91;;;19.85;58.87
49194;BME280;35029;50.804;12.866;2023-07-24T02:32:26;96839.25;;;19.54;58.36
49194;BME280;35029;50.804;12.866;2023-07-24T02:34:52;96888.59;;;19.89;57.86
49194;BME280;35029;50.804;12.866;2023-07-24T02:37:18;96890.75;;;19.92;57.62
49194;BME280;35029;50.804;12.866;2023-07-24T02:39:44;96884.53;;;19.91;57.70
49194;BME280;35029;50.804;12.866;2023-07-24T02:42:10;96876.75;;;19.90;57.89
49194;BME280;35029;50.804;12.866;2023-07-24T02:44:37;96888.31;;;19.90;57.62
49194;BME280;35029;50.804;12.866;2023-07-24T02:47:03;96888.84;;;19.92;57.56
49194;BME280;35029;50.804;12.866;2023-07-24T02:49:29;96889.13;;;19.91;57.49
49194;BME280;35029;50.804;12.866;2023-07-24T02:51:55;96879.16;;;19.91;57.20
49194;BME280;35029;50.804;12.866;2023-07-24T02:54:20;96878.94;;;19.88;57.09
49194;BME280;35029;50.804;12.866;2023-07-24T02:56:46;96893.97;;;19.89;59.26
49194;BME280;35029;50.804;12.866;2023-07-24T02:59:11;96882.16;;;19.80;60.42
49194;BME280;35029;50.804;12.866;2023-07-24T03:01:37;96896.16;;;19.71;61.74
49194;BME280;35029;50.804;12.866;2023-07-24T03:04:02;96886.22;;;19.67;61.84
49194;BME280;35029;50.804;12.866;2023-07-24T03:06:30;96870.66;;;19.69;60.41
49194;BME280;35029;50.804;12.866;2023-07-24T03:08:56;96880.03;;;19.71;60.97
49194;BME280;35029;50.804;12.866;2023-07-24T03:11:21;96891.59;;;19.67;61.94
49194;BME280;35029;50.804;12.866;2023-07-24T03:13:47;96880.63;;;19.58;63.12
49194;BME280;35029;50.804;12.866;2023-07-24T03:16:12;96870.41;;;19.55;62.98
49194;BME280;35029;50.804;12.866;2023-07-24T03:18:38;96813.06;;;19.15;63.11
49194;BME280;35029;50.804;12.866;2023-07-24T03:21:03;96859.94;;;19.53;63.59
49194;BME280;35029;50.804;12.866;2023-07-24T03:23:29;96862.09;;;19.51;63.83
49194;BME280;35029;50.804;12.866;2023-07-24T03:25:54;96861.28;;;19.51;63.12
49194;BME280;35029;50.804;12.866;2023-07-24T03:28:20;96842.75;;;19.44;63.30
49194;BME280;35029;50.804;12.866;2023-07-24T03:30:46;96851.38;;;19.51;64.66
49194;BME280;35029;50.804;12.866;2023-07-24T03:33:11;96851.88;;;19.53;64.11
49194;BME280;35029;50.804;12.866;2023-07-24T03:35:38;96845.94;;;19.56;62.21
49194;BME280;35029;50.804;12.866;2023-07-24T03:38:04;96855.88;;;19.66;61.03
49194;BME280;35029;50.804;12.866;2023-07-24T03:40:31;96810.19;;;19.61;59.80
49194;BME280;35029;50.804;12.866;2023-07-24T03:42:57;96835.09;;;19.82;58.59
49194;BME280;35029;50.804;12.866;2023-07-24T03:45:22;96826.19;;;19.92;58.55
49194;BME280;35029;50.804;12.866;2023-07-24T03:47:48;96830.19;;;19.95;58.44
49194;BME280;35029;50.804;12.866;2023-07-24T03:50:13;96828.88;;;19.92;59.69
49194;BME280;35029;50.804;12.866;2023-07-24T03:52:39;96833.69;;;19.95;59.12
49194;BME280;35029;50.804;12.866;2023-07-24T03:55:05;96829.97;;;19.91;59.32
49194;BME280;35029;50.804;12.866;2023-07-24T03:57:30;96840.69;;;19.96;59.62
49194;BME280;35029;50.804;12.866;2023-07-24T03:59:56;96832.34;;;19.98;59.66
49194;BME280;35029;50.804;12.866;2023-07-24T04:02:22;96826.13;;;19.97;60.31
49194;BME280;35029;50.804;12.866;2023-07-24T04:04:48;96817.84;;;19.93;60.97
49194;BME280;35029;50.804;12.866;2023-07-24T04:07:13;96811.16;;;19.75;61.89
49194;BME280;35029;50.804;12.866;2023-07-24T04:09:39;96824.88;;;19.79;63.06
49194;BME280;35029;50.804;12.866;2023-07-24T04:12:05;96818.50;;;19.65;63.37
49194;BME280;35029;50.804;12.866;2023-07-24T04:14:30;96837.84;;;19.67;63.55
49194;BME280;35029;50.804;12.866;2023-07-24T04:16:56;96835.75;;;19.53;64.46
49194;BME280;35029;50.804;12.866;2023-07-24T04:19:21;96805.19;;;19.34;66.04
49194;BME280;35029;50.804;12.866;2023-07-24T04:21:47;96835.22;;;19.51;66.75
49194;BME280;35029;50.804;12.866;2023-07-24T04:24:12;96830.38;;;19.48;67.77
49194;BME280;35029;50.804;12.866;2023-07-24T04:26:38;96817.81;;;19.38;68.62
49194;BME280;35029;50.804;12.866;2023-07-24T04:29:05;96831.44;;;19.52;68.93
49194;BME280;35029;50.804;12.866;2023-07-24T04:31:31;96827.44;;;19.50;70.21
49194;BME280;35029;50.804;12.866;2023-07-24T04:33:56;96815.41;;;19.32;69.96
49194;BME280;35029;50.804;12.866;2023-07-24T04:36:22;96822.09;;;19.45;69.61
49194;BME280;35029;50.804;12.866;2023-07-24T04:38:48;96833.34;;;19.47;69.87
49194;BME280;35029;50.804;12.866;2023-07-24T04:41:13;96832.28;;;19.48;70.36
49194;BME280;35029;50.804;12.866;2023-07-24T04:43:39;96820.47;;;19.43;72.03
49194;BME280;35029;50.804;12.866;2023-07-24T04:46:04;96789.09;;;19.23;72.67
49194;BME280;35029;50.804;12.866;2023-07-24T04:48:30;96803.59;;;19.33;73.79
49194;BME280;35029;50.804;12.866;2023-07-24T04:50:56;96789.88;;;19.29;73.59
49194;BME280;35029;50.804;12.866;2023-07-24T04:53:22;96818.81;;;19.53;74.09
49194;BME280;35029;50.804;12.866;2023-07-24T04:55:48;96826.63;;;19.54;74.96
49194;BME280;35029;50.804;12.866;2023-07-24T04:58:14;96802.50;;;19.39;75.62
49194;BME280;35029;50.804;12.866;2023-07-24T05:00:39;96785.31;;;19.35;76.37
49194;BME280;35029;50.804;12.866;2023-07-24T05:03:05;96812.38;;;19.54;77.41
49194;BME280;35029;50.804;12.866;2023-07-24T05:05:33;96791.47;;;19.46;78.37
49194;BME280;35029;50.804;12.866;2023-07-24T05:07:59;96805.41;;;19.48;78.36
49194;BME280;35029;50.804;12.866;2023-07-24T05:10:24;96808.66;;;19.45;79.12
49194;BME280;35029;50.804;12.866;2023-07-24T05:12:52;96796.84;;;19.40;79.10
49194;BME280;35029;50.804;12.866;2023-07-24T05:15:17;96807.03;;;19.43;79.56
49194;BME280;35029;50.804;12.866;2023-07-24T05:17:43;96811.63;;;19.38;78.37
49194;BME280;35029;50.804;12.866;2023-07-24T05:20:09;96797.91;;;19.39;78.34
49194;BME280;35029;50.804;12.866;2023-07-24T05:22:35;96812.38;;;19.54;73.38
49194;BME280;35029;50.804;12.866;2023-07-24T05:25:01;96793.50;;;19.59;72.95
49194;BME280;35029;50.804;12.866;2023-07-24T05:27:26;96793.44;;;19.74;71.68
49194;BME280;35029;50.804;12.866;2023-07-24T05:29:52;96796.91;;;19.85;70.61
49194;BME280;35029;50.804;12.866;2023-07-24T05:32:17;96793.91;;;19.92;67.32
49194;BME280;35029;50.804;12.866;2023-07-24T05:34:43;96801.59;;;20.09;66.87
49194;BME280;35029;50.804;12.866;2023-07-24T05:37:08;96813.34;;;20.23;65.85
49194;BME280;35029;50.804;12.866;2023-07-24T05:39:35;96809.22;;;20.31;63.63
49194;BME280;35029;50.804;12.866;2023-07-24T05:42:01;96814.53;;;20.41;61.50
49194;BME280;35029;50.804;12.866;2023-07-24T05:44:27;96808.06;;;20.42;61.30
49194;BME280;35029;50.804;12.866;2023-07-24T05:46:53;96791.09;;;20.42;60.67
49194;BME280;35029;50.804;12.866;2023-07-24T05:49:18;96805.28;;;20.53;60.55
49194;BME280;35029;50.804;12.866;2023-07-24T05:51:44;96802.03;;;20.56;62.19
49194;BME280;35029;50.804;12.866;2023-07-24T05:54:09;96806.84;;;20.59;60.58
49194;BME280;35029;50.804;12.866;2023-07-24T05:56:35;96800.59;;;20.64;59.30
49194;BME280;35029;50.804;12.866;2023-07-24T05:59:00;96800.31;;;20.65;60.27
49194;BME280;35029;50.804;12.866;2023-07-24T06:01:26;96800.31;;;20.70;57.95
49194;BME280;35029;50.804;12.866;2023-07-24T06:03:51;96805.88;;;20.79;58.77
49194;BME280;35029;50.804;12.866;2023-07-24T06:06:17;96807.72;;;20.84;57.57
49194;BME280;35029;50.804;12.866;2023-07-24T06:08:42;96793.63;;;20.92;57.32
49194;BME280;35029;50.804;12.866;2023-07-24T06:11:08;96789.56;;;20.94;56.16
49194;BME280;35029;50.804;12.866;2023-07-24T06:13:33;96786.00;;;20.99;55.67
49194;BME280;35029;50.804;12.866;2023-07-24T06:15:59;96791.00;;;21.11;57.54
49194;BME280;35029;50.804;12.866;2023-07-24T06:18:25;96796.34;;;21.16;55.79
49194;BME280;35029;50.804;12.866;2023-07-24T06:20:54;96792.19;;;21.24;55.63
49194;BME280;35029;50.804;12.866;2023-07-24T06:23:19;96799.66;;;21.32;57.20
49194;BME280;35029;50.804;12.866;2023-07-24T06:25:45;96797.88;;;21.22;54.65
49194;BME280;35029;50.804;12.866;2023-07-24T06:28:11;96791.41;;;21.23;54.59
49194;BME280;35029;50.804;12.866;2023-07-24T06:30:38;96789.16;;;21.31;55.05
49194;BME280;35029;50.804;12.866;2023-07-24T06:33:03;96782.63;;;21.37;55.51
49194;BME280;35029;50.804;12.866;2023-07-24T06:35:29;96785.25;;;21.42;56.31
49194;BME280;35029;50.804;12.866;2023-07-24T06:37:55;96790.28;;;21.49;56.65
49194;BME280;35029;50.804;12.866;2023-07-24T06:40:20;96783.75;;;21.55;56.72
49194;BME280;35029;50.804;12.866;2023-07-24T06:42:46;96769.75;;;21.53;57.04
49194;BME280;35029;50.804;12.866;2023-07-24T06:45:11;96777.00;;;21.57;54.71
49194;BME280;35029;50.804;12.866;2023-07-24T06:47:37;96783.66;;;21.65;56.29
49194;BME280;35029;50.804;12.866;2023-07-24T06:50:03;96785.47;;;21.70;55.94
49194;BME280;35029;50.804;12.866;2023-07-24T06:52:31;96790.72;;;21.80;56.08
49194;BME280;35029;50.804;12.866;2023-07-24T06:54:56;96792.53;;;21.85;56.22
49194;BME280;35029;50.804;12.866;2023-07-24T06:57:23;96786.78;;;21.91;55.10
49194;BME280;35029;50.804;12.866;2023-07-24T06:59:49;96757.69;;;21.88;54.94
49194;BME280;35029;50.804;12.866;2023-07-24T07:02:15;96753.97;;;21.84;54.26
49194;BME280;35029;50.804;12.866;2023-07-24T07:04:41;96768.66;;;22.11;56.02
49194;BME280;35029;50.804;12.866;2023-07-24T07:07:07;96746.47;;;22.14;55.67
49194;BME280;35029;50.804;12.866;2023-07-24T07:09:32;96751.34;;;22.31;55.28
49194;BME280;35029;50.804;12.866;2023-07-24T07:11:58;96763.81;;;22.46;56.21
49194;BME280;35029;50.804;12.866;2023-07-24T07:14:24;96762.41;;;22.49;54.32
49194;BME280;35029;50.804;12.866;2023-07-24T07:16:49;96749.66;;;22.68;54.25
49194;BME280;35029;50.804;12.866;2023-07-24T07:19:15;96742.53;;;22.72;53.05
49194;BME280;35029;50.804;12.866;2023-07-24T07:21:40;96729.66;;;22.83;52.82
49194;BME280;35029;50.804;12.866;2023-07-24T07:24:06;96733.47;;;22.96;52.64
49194;BME280;35029;50.804;12.866;2023-07-24T07:26:31;96733.47;;;23.10;52.11
49194;BME280;35029;50.804;12.866;2023-07-24T07:28:57;96711.94;;;23.05;51.56
49194;BME280;35029;50.804;12.866;2023-07-24T07:31:23;96721.84;;;23.37;52.09
49194;BME280;35029;50.804;12.866;2023-07-24T07:33:48;96708.28;;;23.51;50.81
49194;BME280;35029;50.804;12.866;2023-07-24T07:36:14;96675.28;;;23.63;49.76
49194;BME280;35029;50.804;12.866;2023-07-24T07:38:39;96690.97;;;23.89;48.28
49194;BME280;35029;50.804;12.866;2023-07-24T07:41:05;96699.91;;;23.98;48.95
49194;BME280;35029;50.804;12.866;2023-07-24T07:43:31;96685.94;;;24.05;48.72
49194;BME280;35029;50.804;12.866;2023-07-24T07:45:57;96695.13;;;24.49;49.55
49194;BME280;35029;50.804;12.866;2023-07-24T07:48:24;96694.53;;;24.61;46.63
49194;BME280;35029;50.804;12.866;2023-07-24T07:50:52;96697.66;;;24.77;48.37
49194;BME280;35029;50.804;12.866;2023-07-24T07:53:18;96700.81;;;24.70;47.47
49194;BME280;35029;50.804;12.866;2023-07-24T07:55:44;96709.28;;;24.46;47.96
49194;BME280;35029;50.804;12.866;2023-07-24T07:58:09;96717.78;;;24.30;48.69
49194;BME280;35029;50.804;12.866;2023-07-24T08:00:35;96712.78;;;24.15;48.66
49194;BME280;35029;50.804;12.866;2023-07-24T08:03:00;96706.53;;;24.14;50.57
49194;BME280;35029;50.804;12.866;2023-07-24T08:05:26;96715.50;;;24.15;49.40
49194;BME280;35029;50.804;12.866;2023-07-24T08:07:51;96700.16;;;24.10;50.19
49194;BME280;35029;50.804;12.866;2023-07-24T08:10:17;96707.84;;;24.17;50.10
49194;BME280;35029;50.804;12.866;2023-07-24T08:12:43;96705.31;;;24.21;50.40
49194;BME280;35029;50.804;12.866;2023-07-24T08:15:09;96684.44;;;24.21;50.51
49194;BME280;35029;50.804;12.866;2023-07-24T08:17:35;96696.19;;;24.39;50.06
49194;BME280;35029;50.804;12.866;2023-07-24T08:20:01;96698.47;;;24.46;50.59
49194;BME280;35029;50.804;12.866;2023-07-24T08:22:26;96698.47;;;24.46;50.55
49194;BME280;35029;50.804;12.866;2023-07-24T08:24:52;96694.94;;;24.45;49.36
49194;BME280;35029;50.804;12.866;2023-07-24T08:27:17;96685.31;;;24.62;48.15
49194;BME280;35029;50.804;12.866;2023-07-24T08:29:43;96686.84;;;24.86;48.24
49194;BME280;35029;50.804;12.866;2023-07-24T08:32:08;96678.53;;;24.73;48.68
49194;BME280;35029;50.804;12.866;2023-07-24T08:34:34;96668.16;;;24.75;47.96
49194;BME280;35029;50.804;12.866;2023-07-24T08:36:59;96681.56;;;24.80;48.83
49194;BME280;35029;50.804;12.866;2023-07-24T08:39:25;96681.94;;;24.96;49.31
49194;BME280;35029;50.804;12.866;2023-07-24T08:41:51;96674.31;;;25.07;48.79
49194;BME280;35029;50.804;12.866;2023-07-24T08:44:16;96679.84;;;24.85;47.28
49194;BME280;35029;50.804;12.866;2023-07-24T08:46:44;96650.47;;;24.78;47.67
49194;BME280;35029;50.804;12.866;2023-07-24T08:49:14;96691.66;;;24.97;48.29
49194;BME280;35029;50.804;12.866;2023-07-24T08:51:41;96700.44;;;24.94;48.58
49194;BME280;35029;50.804;12.866;2023-07-24T08:54:08;96693.56;;;24.88;48.31
49194;BME280;35029;50.804;12.866;2023-07-24T08:56:33;96687.78;;;24.81;47.92
49194;BME280;35029;50.804;12.866;2023-07-24T08:59:01;96691.91;;;24.78;47.12
49194;BME280;35029;50.804;12.866;2023-07-24T09:01:26;96692.88;;;24.83;47.78
49194;BME280;35029;50.804;12.866;2023-07-24T09:03:52;96698.59;;;24.72;46.91
49194;BME280;35029;50.804;12.866;2023-07-24T09:06:17;96697.50;;;24.73;49.15
49194;BME280;35029;50.804;12.866;2023-07-24T09:08:43;96693.41;;;24.53;47.49
49194;BME280;35029;50.804;12.866;2023-07-24T09:11:11;96700.22;;;24.51;48.95
49194;BME280;35029;50.804;12.866;2023-07-24T09:13:41;96686.50;;;24.47;48.54
49194;BME280;35029;50.804;12.866;2023-07-24T09:16:08;96703.28;;;24.58;48.25
49194;BME280;35029;50.804;12.866;2023-07-24T09:18:40;96689.50;;;24.68;48.67
49194;BME280;35029;50.804;12.866;2023-07-24T09:21:06;96682.41;;;24.90;48.88
49194;BME280;35029;50.804;12.866;2023-07-24T09:23:32;96684.44;;;24.84;47.53
49194;BME280;35029;50.804;12.866;2023-07-24T09:25:58;96692.22;;;24.77;47.65
49194;BME280;35029;50.804;12.866;2023-07-24T09:28:24;96695.91;;;24.72;47.86
49194;BME280;35029;50.804;12.866;2023-07-24T09:30:54;96688.22;;;24.74;49.83
49194;BME280;35029;50.804;12.866;2023-07-24T09:33:22;96693.72;;;24.52;48.41
49194;BME280;35029;50.804;12.866;2023-07-24T09:35:58;96686.38;;;24.52;49.19
49194;BME280;35029;50.804;12.866;2023-07-24T09:38:24;96683.97;;;24.51;49.59
49194;BME280;35029;50.804;12.866;2023-07-24T09:40:52;96691.75;;;24.43;50.40
49194;BME280;35029;50.804;12.866;2023-07-24T09:43:20;96694.41;;;24.35;49.73
49194;BME280;35029;50.804;12.866;2023-07-24T09:45:48;96708.38;;;24.28;51.02
49194;BME280;35029;50.804;12.866;2023-07-24T09:48:15;96686.56;;;24.24;52.38
49194;BME280;35029;50.804;12.866;2023-07-24T09:50:42;96696.09;;;24.22;52.88
49194;BME280;35029;50.804;12.866;2023-07-24T09:53:19;96691.16;;;24.24;53.38
49194;BME280;35029;50.804;12.866;2023-07-24T09:55:57;96669.47;;;24.15;53.55
49194;BME280;35029;50.804;12.866;2023-07-24T09:58:23;96692.56;;;24.21;54.12
49194;BME280;35029;50.804;12.866;2023-07-24T10:00:50;96679.53;;;24.23;55.35
49194;BME280;35029;50.804;12.866;2023-07-24T10:03:16;96675.13;;;24.36;54.51
49194;BME280;35029;50.804;12.866;2023-07-24T10:05:46;96670.13;;;24.52;56.43
49194;BME280;35029;50.804;12.866;2023-07-24T10:08:14;96654.03;;;24.56;53.88
49194;BME280;35029;50.804;12.866;2023-07-24T10:10:40;96657.50;;;24.88;52.54
49194;BME280;35029;50.804;12.866;2023-07-24T10:13:06;96644.63;;;25.02;51.85
49194;BME280;35029;50.804;12.866;2023-07-24T10:15:37;96649.66;;;25.35;51.57
49194;BME280;35029;50.804;12.866;2023-07-24T10:18:04;96649.34;;;25.72;50.38
49194;BME280;35029;50.804;12.866;2023-07-24T10:20:37;96639.59;;;25.71;48.98
49194;BME280;35029;50.804;12.866;2023-07-24T10:23:04;96637.59;;;26.15;47.72
49194;BME280;35029;50.804;12.866;2023-07-24T10:25:32;96605.28;;;26.31;49.50
49194;BME280;35029;50.804;12.866;2023-07-24T10:28:15;96621.31;;;26.92;46.56
49194;BME280;35029;50.804;12.866;2023-07-24T10:30:42;96624.38;;;27.33;46.03
49194;BME280;35029;50.804;12.866;2023-07-24T10:33:11;96612.19;;;27.60;45.60
49194;BME280;35029;50.804;12.866;2023-07-24T10:35:45;96619.34;;;27.98;43.75
49194;BME280;35029;50.804;12.866;2023-07-24T10:38:13;96603.88;;;28.24;44.34
49194;BME280;35029;50.804;12.866;2023-07-24T10:40:47;96610.13;;;28.37;42.04
49194;BME280;35029;50.804;12.866;2023-07-24T10:43:19;96599.44;;;28.19;41.95
49194;BME280;35029;50.804;12.866;2023-07-24T10:45:50;96607.13;;;28.05;42.19
49194;BME280;35029;50.804;12.866;2023-07-24T10:48:17;96602.28;;;28.23;41.72
49194;BME280;35029;50.804;12.866;2023-07-24T10:50:44;96592.66;;;28.50;40.88
49194;BME280;35029;50.804;12.866;2023-07-24T10:53:12;96580.97;;;28.74;41.12
49194;BME280;35029;50.804;12.866;2023-07-24T10:55:38;96587.09;;;29.24;41.82
49194;BME280;35029;50.804;12.866;2023-07-24T10:58:05;96586.94;;;29.05;39.70
49194;BME280;35029;50.804;12.866;2023-07-24T11:00:31;96582.16;;;29.14;41.43
49194;BME280;35029;50.804;12.866;2023-07-24T11:02:56;96590.94;;;28.58;40.81
49194;BME280;35029;50.804;12.866;2023-07-24T11:05:22;96569.59;;;28.35;42.62
49194;BME280;35029;50.804;12.866;2023-07-24T11:07:48;96582.16;;;27.69;43.46
49194;BME280;35029;50.804;12.866;2023-07-24T11:10:21;96581.81;;;27.16;43.34
49194;BME280;35029;50.804;12.866;2023-07-24T11:12:47;96580.72;;;26.87;45.09
49194;BME280;35029;50.804;12.866;2023-07-24T11:15:13;96579.66;;;26.79;46.72
49194;BME280;35029;50.804;12.866;2023-07-24T11:17:41;96590.50;;;26.49;45.89
49194;BME280;35029;50.804;12.866;2023-07-24T11:20:11;96593.91;;;26.38;46.58
49194;BME280;35029;50.804;12.866;2023-07-24T11:22:42;96595.97;;;25.93;46.69
49194;BME280;35029;50.804;12.866;2023-07-24T11:25:08;96598.09;;;25.70;48.42
49194;BME280;35029;50.804;12.866;2023-07-24T11:27:38;96596.00;;;25.50;47.38
49194;BME280;35029;50.804;12.866;2023-07-24T11:30:05;96617.25;;;25.47;49.42
49194;BME280;35029;50.804;12.866;2023-07-24T11:32:30;96619.16;;;25.29;52.43
49194;BME280;35029;50.804;12.866;2023-07-24T11:34:56;96645.88;;;24.96;55.76
49194;BME280;35029;50.804;12.866;2023-07-24T11:37:22;96647.72;;;24.38;61.87
49194;BME280;35029;50.804;12.866;2023-07-24T11:40:01;96657.19;;;23.72;68.38
49194;BME280;35029;50.804;12.866;2023-07-24T11:42:30;96664.00;;;22.96;65.99
49194;BME280;35029;50.804;12.866;2023-07-24T11:44:56;96663.44;;;22.58;70.75
49194;BME280;35029;50.804;12.866;2023-07-24T11:47:26;96641.59;;;22.40;73.63
49194;BME280;35029;50.804;12.866;2023-07-24T11:50:01;96657.00;;;22.07;73.09
49194;BME280;35029;50.804;12.866;2023-07-24T11:52:44;96664.56;;;21.91;76.84
49194;BME280;35029;50.804;12.866;2023-07-24T11:55:14;96680.13;;;21.80;76.51
49194;BME280;35029;50.804;12.866;2023-07-24T11:57:40;96700.19;;;21.74;80.32
49194;BME280;35029;50.804;12.866;2023-07-24T12:00:17;96685.53;;;21.42;84.00
49194;BME280;35029;50.804;12.866;2023-07-24T12:02:43;96699.19;;;21.45;88.99
49194;BME280;35029;50.804;12.866;2023-07-24T12:05:10;96702.72;;;21.27;90.56
49194;BME280;35029;50.804;12.866;2023-07-24T12:07:35;96689.41;;;21.11;94.43
49194;BME280;35029;50.804;12.866;2023-07-24T12:10:05;96679.00;;;21.05;90.61
49194;BME280;35029;50.804;12.866;2023-07-24T12:12:44;96647.19;;;21.07;94.04
49194;BME280;35029;50.804;12.866;2023-07-24T12:15:11;96653.19;;;21.23;93.31
49194;BME280;35029;50.804;12.866;2023-07-24T12:17:37;96633.66;;;21.31;92.96
49194;BME280;35029;50.804;12.866;2023-07-24T12:20:04;96631.81;;;21.45;93.08
49194;BME280;35029;50.804;12.866;2023-07-24T12:22:31;96620.66;;;21.71;92.19
49194;BME280;35029;50.804;12.866;2023-07-24T12:24:57;96620.06;;;22.07;91.82
49194;BME280;35029;50.804;12.866;2023-07-24T12:27:24;96621.31;;;22.57;89.34
49194;BME280;35029;50.804;12.866;2023-07-24T12:29:51;96614.41;;;22.78;88.09
49194;BME280;35029;50.804;12.866;2023-07-24T12:32:17;96608.53;;;23.13;87.48
49194;BME280;35029;50.804;12.866;2023-07-24T12:34:44;96603.66;;;23.38;87.36
49194;BME280;35029;50.804;12.866;2023-07-24T12:37:09;96599.97;;;23.56;83.78
49194;BME280;35029;50.804;12.866;2023-07-24T12:39:35;96597.84;;;23.67;81.37
49194;BME280;35029;50.804;12.866;2023-07-24T12:42:00;96598.63;;;23.90;79.98
49194;BME280;35029;50.804;12.866;2023-07-24T12:44:26;96601.72;;;24.06;79.08
49194;BME280;35029;50.804;12.866;2023-07-24T12:46:53;96606.75;;;24.62;74.99